Time;durP1;ratioP1;P1;durP2;ratioP2;P2;SDS_P1;SDS_P2;PMS_P1;PMS_P2;Temp;Humidity;BMP_temperature;BMP_pressure;BME280_temperature;BME280_humidity;BME280_pressure;Samples;Min_cycle;Max_cycle;Signal;HPM_P1;HPM_P2
2023/05/07 00:01:13;;;;;;;9.38;8.55;;;;;;;;;;5098140;28;20051;-82
2023/05/07 00:03:39;;;;;;;10.25;9.40;;;;;;;;;;5097766;28;20498;-82
2023/05/07 00:06:05;;;;;;;12.35;9.98;;;;;;;;;;5115760;28;20040;-82
2023/05/07 00:08:31;;;;;;;9.77;9.15;;;;;;;;;;5115711;28;20054;-82
2023/05/07 00:10:57;;;;;;;10.25;9.27;;;;;;;;;;5080958;28;20047;-82
2023/05/07 00:13:23;;;;;;;9.57;8.77;;;;;;;;;;5097363;28;20127;-82
2023/05/07 00:15:49;;;;;;;10.27;9.43;;;;;;;;;;5097599;28;20100;-82
2023/05/07 00:18:16;;;;;;;10.38;9.25;;;;;;;;;;5080497;28;20055;-82
2023/05/07 00:20:42;;;;;;;10.60;9.52;;;;;;;;;;5080777;28;20376;-82
2023/05/07 00:23:08;;;;;;;9.57;8.70;;;;;;;;;;5097459;28;20131;-81
2023/05/07 00:25:34;;;;;;;9.98;8.95;;;;;;;;;;5080447;28;20051;-82
2023/05/07 00:28:03;;;;;;;9.77;8.93;;;;;;;;;;5081340;28;20100;-81
2023/05/07 00:30:29;;;;;;;10.18;9.38;;;;;;;;;;5097080;28;20487;-81
2023/05/07 00:32:55;;;;;;;10.75;9.68;;;;;;;;;;5081148;28;20134;-82
2023/05/07 00:35:21;;;;;;;11.68;10.48;;;;;;;;;;5097186;28;20051;-81
2023/05/07 00:37:48;;;;;;;10.63;9.70;;;;;;;;;;5080178;28;20499;-81
2023/05/07 00:40:14;;;;;;;12.48;11.02;;;;;;;;;;5080147;28;20044;-81
2023/05/07 00:42:40;;;;;;;12.65;11.63;;;;;;;;;;5096841;28;20044;-81
2023/05/07 00:45:07;;;;;;;12.80;11.90;;;;;;;;;;5080155;28;20517;-81
2023/05/07 00:47:33;;;;;;;15.10;13.63;;;;;;;;;;5097065;28;20055;-81
2023/05/07 00:49:59;;;;;;;14.52;13.13;;;;;;;;;;5097803;28;20051;-82
2023/05/07 00:52:26;;;;;;;15.43;13.93;;;;;;;;;;5080012;28;20040;-82
2023/05/07 00:54:52;;;;;;;15.90;14.45;;;;;;;;;;5096657;28;20047;-83
2023/05/07 00:57:20;;;;;;;15.38;13.98;;;;;;;;;;5097073;28;20441;-82
2023/05/07 00:59:46;;;;;;;15.20;14.00;;;;;;;;;;5097075;28;20418;-81
2023/05/07 01:02:12;;;;;;;17.40;15.82;;;;;;;;;;5096629;28;20054;-81
2023/05/07 01:04:38;;;;;;;17.08;15.63;;;;;;;;;;5096711;28;20079;-81
2023/05/07 01:07:04;;;;;;;17.00;15.40;;;;;;;;;;5079761;28;20059;-81
2023/05/07 01:09:30;;;;;;;17.58;16.10;;;;;;;;;;5096620;28;20088;-82
2023/05/07 01:11:57;;;;;;;18.48;15.82;;;;;;;;;;5079504;28;20126;-82
2023/05/07 01:14:24;;;;;;;18.58;16.98;;;;;;;;;;5062995;28;20039;-82
2023/05/07 01:16:50;;;;;;;18.25;16.75;;;;;;;;;;5096953;28;20090;-82
2023/05/07 01:19:18;;;;;;;18.73;17.15;;;;;;;;;;5096513;28;20482;-82
2023/05/07 01:21:48;;;;;;;19.02;17.15;;;;;;;;;;5096465;28;20044;-82
2023/05/07 01:24:15;;;;;;;18.08;16.58;;;;;;;;;;5096416;28;20490;-82
2023/05/07 01:26:42;;;;;;;19.05;17.50;;;;;;;;;;5079521;28;20044;-82
2023/05/07 01:29:08;;;;;;;17.23;15.93;;;;;;;;;;5114469;28;20055;-82
2023/05/07 01:31:35;;;;;;;18.92;17.27;;;;;;;;;;5079461;28;20066;-83
2023/05/07 01:34:02;;;;;;;18.50;16.92;;;;;;;;;;5114095;28;20043;-83
2023/05/07 01:36:30;;;;;;;18.60;17.00;;;;;;;;;;5079332;28;20134;-82
2023/05/07 01:38:57;;;;;;;18.65;16.58;;;;;;;;;;5096134;28;20040;-83
2023/05/07 01:41:24;;;;;;;19.88;18.15;;;;;;;;;;5079538;28;20089;-82
2023/05/07 01:43:51;;;;;;;19.65;17.95;;;;;;;;;;5096949;28;20063;-82
2023/05/07 01:46:18;;;;;;;18.50;17.08;;;;;;;;;;5095993;28;20048;-82
2023/05/07 01:48:45;;;;;;;20.23;18.52;;;;;;;;;;5096165;28;20394;-82
2023/05/07 01:51:12;;;;;;;19.95;18.15;;;;;;;;;;5096733;28;20079;-82
2023/05/07 01:53:38;;;;;;;19.42;17.83;;;;;;;;;;5097465;28;20096;-82
2023/05/07 01:56:05;;;;;;;19.08;17.38;;;;;;;;;;5100309;28;20364;-82
2023/05/07 01:58:31;;;;;;;20.35;18.67;;;;;;;;;;5118260;28;20055;-82
2023/05/07 02:00:57;;;;;;;20.67;18.90;;;;;;;;;;5083533;28;20047;-82
2023/05/07 02:03:23;;;;;;;21.27;19.33;;;;;;;;;;5083116;28;20044;-82
2023/05/07 02:05:49;;;;;;;20.38;18.67;;;;;;;;;;5100074;28;20051;-82
2023/05/07 02:08:15;;;;;;;20.73;18.88;;;;;;;;;;5100899;28;20050;-83
2023/05/07 02:10:41;;;;;;;22.17;20.10;;;;;;;;;;5083245;28;20112;-82
2023/05/07 02:13:07;;;;;;;22.65;20.65;;;;;;;;;;5099676;28;20054;-82
2023/05/07 02:15:33;;;;;;;23.20;21.00;;;;;;;;;;5117850;28;20555;-82
2023/05/07 02:18:01;;;;;;;21.52;19.58;;;;;;;;;;5066341;28;20047;-82
2023/05/07 02:20:27;;;;;;;23.40;21.30;;;;;;;;;;5099928;28;20108;-82
2023/05/07 02:22:53;;;;;;;24.90;22.60;;;;;;;;;;5099823;28;20054;-83
2023/05/07 02:25:19;;;;;;;22.33;20.33;;;;;;;;;;5099683;28;20055;-83
2023/05/07 02:27:45;;;;;;;24.27;21.92;;;;;;;;;;5065936;28;20047;-83
2023/05/07 02:30:11;;;;;;;24.17;22.17;;;;;;;;;;5099983;28;20476;-82
2023/05/07 02:32:37;;;;;;;24.63;22.30;;;;;;;;;;5082614;28;20130;-82
2023/05/07 02:35:04;;;;;;;23.85;21.85;;;;;;;;;;5099226;28;20093;-83
2023/05/07 02:37:30;;;;;;;23.30;21.20;;;;;;;;;;5066416;28;20062;-83
2023/05/07 02:39:56;;;;;;;25.00;22.45;;;;;;;;;;5099474;28;20081;-82
2023/05/07 02:42:22;;;;;;;24.33;22.17;;;;;;;;;;5099491;28;20482;-83
2023/05/07 02:44:48;;;;;;;26.05;23.70;;;;;;;;;;5082771;28;20040;-82
2023/05/07 02:47:15;;;;;;;27.38;24.98;;;;;;;;;;5099253;28;20048;-82
2023/05/07 02:49:41;;;;;;;27.52;24.92;;;;;;;;;;5117266;28;20044;-82
2023/05/07 02:52:08;;;;;;;28.08;25.23;;;;;;;;;;5099019;28;20479;-82
2023/05/07 02:54:34;;;;;;;27.42;24.77;;;;;;;;;;5098996;28;20047;-82
2023/05/07 02:57:00;;;;;;;27.50;25.00;;;;;;;;;;5081925;28;20047;-82
2023/05/07 02:59:27;;;;;;;28.08;25.20;;;;;;;;;;5082375;28;20086;-82
2023/05/07 03:01:53;;;;;;;29.65;26.70;;;;;;;;;;5117172;28;20051;-83
2023/05/07 03:04:19;;;;;;;29.67;27.00;;;;;;;;;;5099358;28;20055;-83
2023/05/07 03:06:45;;;;;;;30.50;27.50;;;;;;;;;;5099275;28;20157;-82
2023/05/07 03:09:11;;;;;;;30.33;27.40;;;;;;;;;;5099826;28;20047;-82
2023/05/07 03:11:38;;;;;;;30.02;27.23;;;;;;;;;;5065548;28;20073;-82
2023/05/07 03:14:04;;;;;;;29.73;26.80;;;;;;;;;;5082429;28;20039;-83
2023/05/07 03:16:30;;;;;;;32.35;29.05;;;;;;;;;;5065262;28;20085;-82
2023/05/07 03:18:56;;;;;;;32.42;29.35;;;;;;;;;;5081500;28;20456;-82
2023/05/07 03:21:22;;;;;;;32.95;29.67;;;;;;;;;;5098664;28;20040;-82
2023/05/07 03:23:48;;;;;;;30.95;28.05;;;;;;;;;;5098654;28;20047;-83
2023/05/07 03:26:14;;;;;;;34.08;30.52;;;;;;;;;;5099410;28;20380;-83
2023/05/07 03:28:40;;;;;;;34.20;30.80;;;;;;;;;;5099379;28;20126;-83
2023/05/07 03:31:06;;;;;;;33.78;30.50;;;;;;;;;;5098242;28;20043;-83
2023/05/07 03:33:34;;;;;;;33.80;30.48;;;;;;;;;;5098281;28;20092;-82
2023/05/07 03:36:00;;;;;;;36.53;32.92;;;;;;;;;;5116604;28;20055;-83
2023/05/07 03:38:26;;;;;;;33.55;30.30;;;;;;;;;;5116334;28;20104;-82
2023/05/07 03:40:52;;;;;;;34.55;31.15;;;;;;;;;;5098305;28;20128;-83
2023/05/07 03:43:18;;;;;;;34.95;31.55;;;;;;;;;;5081404;28;20144;-82
2023/05/07 03:45:44;;;;;;;34.22;30.83;;;;;;;;;;5098283;28;20054;-82
2023/05/07 03:48:10;;;;;;;34.88;31.63;;;;;;;;;;5116211;28;20136;-83
2023/05/07 03:50:36;;;;;;;35.33;31.88;;;;;;;;;;5098062;28;20498;-82
2023/05/07 03:53:02;;;;;;;36.10;32.53;;;;;;;;;;5081470;28;20093;-83
2023/05/07 03:55:29;;;;;;;34.08;30.63;;;;;;;;;;5081597;28;20055;-83
2023/05/07 03:57:56;;;;;;;35.08;31.52;;;;;;;;;;5081357;28;20083;-82
2023/05/07 04:00:22;;;;;;;34.15;31.05;;;;;;;;;;5080759;28;20479;-82
2023/05/07 04:02:48;;;;;;;35.95;32.58;;;;;;;;;;5081355;28;20046;-83
2023/05/07 04:05:15;;;;;;;35.40;31.98;;;;;;;;;;5081388;28;20039;-82
2023/05/07 04:07:41;;;;;;;36.13;32.60;;;;;;;;;;5081700;28;20353;-82
2023/05/07 04:10:08;;;;;;;35.20;31.92;;;;;;;;;;5081116;28;20142;-82
2023/05/07 04:12:34;;;;;;;35.70;32.08;;;;;;;;;;5097927;28;20097;-82
2023/05/07 04:15:00;;;;;;;33.10;30.02;;;;;;;;;;5080648;28;20123;-83
2023/05/07 04:17:26;;;;;;;34.20;30.83;;;;;;;;;;5096877;28;20086;-82
2023/05/07 04:19:52;;;;;;;33.42;30.27;;;;;;;;;;5116072;28;20055;-83
2023/05/07 04:22:18;;;;;;;34.35;31.13;;;;;;;;;;5080541;28;20048;-83
2023/05/07 04:24:44;;;;;;;33.25;30.15;;;;;;;;;;5097473;28;20134;-82
2023/05/07 04:27:10;;;;;;;34.22;31.02;;;;;;;;;;5115423;28;20051;-83
2023/05/07 04:29:36;;;;;;;34.17;30.92;;;;;;;;;;5080612;28;20058;-83
2023/05/07 04:32:02;;;;;;;32.55;29.42;;;;;;;;;;5115347;28;20047;-82
2023/05/07 04:34:28;;;;;;;34.33;31.13;;;;;;;;;;5115064;28;20039;-82
2023/05/07 04:36:54;;;;;;;31.80;28.88;;;;;;;;;;5080381;28;20040;-81
2023/05/07 04:39:20;;;;;;;31.75;28.75;;;;;;;;;;5097218;28;20044;-83
2023/05/07 04:41:46;;;;;;;32.58;29.30;;;;;;;;;;5080226;28;20044;-82
2023/05/07 04:44:13;;;;;;;31.33;28.23;;;;;;;;;;5080299;28;20530;-82
2023/05/07 04:46:39;;;;;;;32.00;28.73;;;;;;;;;;5097061;28;20059;-82
2023/05/07 04:49:05;;;;;;;31.75;28.63;;;;;;;;;;5096772;28;20051;-82
2023/05/07 04:51:32;;;;;;;31.33;28.27;;;;;;;;;;5080293;28;20048;-83
2023/05/07 04:53:58;;;;;;;31.35;28.35;;;;;;;;;;5080179;28;20047;-82
2023/05/07 04:56:24;;;;;;;30.08;27.42;;;;;;;;;;5114728;28;20043;-83
2023/05/07 04:58:50;;;;;;;28.35;25.67;;;;;;;;;;5096815;28;20399;-82
2023/05/07 05:01:17;;;;;;;30.10;27.17;;;;;;;;;;5080053;28;20544;-82
2023/05/07 05:03:43;;;;;;;29.63;26.83;;;;;;;;;;5114608;28;20439;-82
2023/05/07 05:06:09;;;;;;;29.73;26.92;;;;;;;;;;5096640;28;20403;-82
2023/05/07 05:08:35;;;;;;;28.55;25.95;;;;;;;;;;5096517;28;20048;-82
2023/05/07 05:11:02;;;;;;;29.42;26.60;;;;;;;;;;5096557;28;20055;-83
2023/05/07 05:13:28;;;;;;;27.15;24.67;;;;;;;;;;5096423;28;20043;-83
2023/05/07 05:15:54;;;;;;;27.95;25.45;;;;;;;;;;5096703;28;20125;-83
2023/05/07 05:18:20;;;;;;;28.40;25.65;;;;;;;;;;5079578;28;20550;-83
2023/05/07 05:20:46;;;;;;;27.73;25.15;;;;;;;;;;5096733;28;20051;-83
2023/05/07 05:23:13;;;;;;;28.40;25.73;;;;;;;;;;5096266;28;20399;-83
2023/05/07 05:25:40;;;;;;;26.85;24.45;;;;;;;;;;5079331;28;20058;-83
2023/05/07 05:28:06;;;;;;;27.90;25.38;;;;;;;;;;5095494;28;20052;-83
2023/05/07 05:30:32;;;;;;;27.88;25.38;;;;;;;;;;5096583;28;20047;-83
2023/05/07 05:32:58;;;;;;;26.95;24.45;;;;;;;;;;5063229;28;20055;-83
2023/05/07 05:35:24;;;;;;;26.45;24.17;;;;;;;;;;5095990;28;20387;-83
2023/05/07 05:37:50;;;;;;;26.98;24.50;;;;;;;;;;5079750;28;20039;-84
2023/05/07 05:40:16;;;;;;;26.70;24.17;;;;;;;;;;5096248;28;20108;-84
2023/05/07 05:42:42;;;;;;;26.65;24.25;;;;;;;;;;5096028;28;20054;-83
2023/05/07 05:45:09;;;;;;;27.17;24.75;;;;;;;;;;5096088;28;20084;-83
2023/05/07 05:47:35;;;;;;;25.45;23.05;;;;;;;;;;5096081;28;20082;-84
2023/05/07 05:50:01;;;;;;;26.58;24.15;;;;;;;;;;5114069;28;20051;-83
2023/05/07 05:52:27;;;;;;;28.90;26.10;;;;;;;;;;5114064;28;20047;-83
2023/05/07 05:54:53;;;;;;;27.90;25.10;;;;;;;;;;5095707;28;20480;-84
2023/05/07 05:57:20;;;;;;;27.55;25.15;;;;;;;;;;5096079;28;20044;-83
2023/05/07 05:59:47;;;;;;;26.88;24.63;;;;;;;;;;5096391;28;20050;-83
2023/05/07 06:02:13;;;;;;;29.70;26.88;;;;;;;;;;5096040;28;20502;-83
2023/05/07 06:04:39;;;;;;;28.88;26.17;;;;;;;;;;5095919;28;20051;-84
2023/05/07 06:07:05;;;;;;;29.30;26.67;;;;;;;;;;5096713;28;20541;-83
2023/05/07 06:09:31;;;;;;;29.33;26.52;;;;;;;;;;5079435;28;20173;-83
2023/05/07 06:11:57;;;;;;;29.77;27.17;;;;;;;;;;5096147;28;20051;-83
2023/05/07 06:14:23;;;;;;;29.45;26.65;;;;;;;;;;5114081;28;20046;-83
2023/05/07 06:16:49;;;;;;;29.08;26.42;;;;;;;;;;5078945;28;20441;-84
2023/05/07 06:19:17;;;;;;;30.73;28.02;;;;;;;;;;5095149;28;20069;-83
2023/05/07 06:21:44;;;;;;;30.48;27.67;;;;;;;;;;5095431;28;20503;-84
2023/05/07 06:24:10;;;;;;;29.08;26.40;;;;;;;;;;5095641;28;20071;-83
2023/05/07 06:26:36;;;;;;;31.58;28.52;;;;;;;;;;5095851;28;20052;-83
2023/05/07 06:29:02;;;;;;;29.55;26.92;;;;;;;;;;5079224;28;20087;-83
2023/05/07 06:31:33;;;;;;;31.08;28.17;;;;;;;;;;5095755;28;20101;-83
2023/05/07 06:33:59;;;;;;;29.60;27.00;;;;;;;;;;5096328;28;20048;-84
2023/05/07 06:36:26;;;;;;;31.77;28.77;;;;;;;;;;5095517;28;20036;-83
2023/05/07 06:38:52;;;;;;;30.67;27.77;;;;;;;;;;5079065;28;20047;-83
2023/05/07 06:41:18;;;;;;;30.08;27.42;;;;;;;;;;5099238;28;20054;-83
2023/05/07 06:43:44;;;;;;;32.22;29.23;;;;;;;;;;5099408;28;20054;-83
2023/05/07 06:46:10;;;;;;;30.27;27.55;;;;;;;;;;5099214;28;20054;-83
2023/05/07 06:48:36;;;;;;;29.60;26.80;;;;;;;;;;5099468;28;20392;-83
2023/05/07 06:51:02;;;;;;;33.03;29.65;;;;;;;;;;5065824;28;20480;-83
2023/05/07 06:53:30;;;;;;;32.63;29.52;;;;;;;;;;5082304;28;20488;-83
2023/05/07 06:55:56;;;;;;;30.52;27.77;;;;;;;;;;5099147;28;20047;-83
2023/05/07 06:58:23;;;;;;;31.35;28.45;;;;;;;;;;5082174;28;20455;-84
2023/05/07 07:00:49;;;;;;;32.30;29.40;;;;;;;;;;5082402;28;20051;-83
2023/05/07 07:03:15;;;;;;;30.95;28.05;;;;;;;;;;5099057;28;20479;-84
2023/05/07 07:05:42;;;;;;;31.33;28.42;;;;;;;;;;5098794;28;20372;-83
2023/05/07 07:08:08;;;;;;;31.67;28.88;;;;;;;;;;5082307;28;20116;-83
2023/05/07 07:10:34;;;;;;;32.58;29.52;;;;;;;;;;5082317;28;20048;-83
2023/05/07 07:13:00;;;;;;;31.52;28.73;;;;;;;;;;5099145;28;20043;-83
2023/05/07 07:15:26;;;;;;;32.20;29.10;;;;;;;;;;5081817;28;20126;-83
2023/05/07 07:17:53;;;;;;;31.80;28.77;;;;;;;;;;5095242;28;20131;-83
2023/05/07 07:20:19;;;;;;;32.88;29.73;;;;;;;;;;5095340;28;20577;-83
2023/05/07 07:22:45;;;;;;;31.67;28.58;;;;;;;;;;5095232;28;20056;-83
2023/05/07 07:25:11;;;;;;;32.10;28.88;;;;;;;;;;5095243;28;20083;-83
2023/05/07 07:27:39;;;;;;;32.25;29.23;;;;;;;;;;5095962;28;20055;-83
2023/05/07 07:30:06;;;;;;;32.15;29.15;;;;;;;;;;5078644;28;20052;-83
2023/05/07 07:32:33;;;;;;;32.03;29.02;;;;;;;;;;5078370;28;20040;-81
2023/05/07 07:34:59;;;;;;;33.33;30.30;;;;;;;;;;5077930;28;20048;-82
2023/05/07 07:37:25;;;;;;;32.72;29.55;;;;;;;;;;5094802;28;20055;-84
2023/05/07 07:39:51;;;;;;;32.97;29.88;;;;;;;;;;5095464;28;20488;-82
2023/05/07 07:42:18;;;;;;;33.88;30.48;;;;;;;;;;5078131;28;20056;-82
2023/05/07 07:44:44;;;;;;;31.75;28.85;;;;;;;;;;5094868;28;20561;-82
2023/05/07 07:47:10;;;;;;;31.10;28.25;;;;;;;;;;5095081;28;20044;-83
2023/05/07 07:49:36;;;;;;;32.58;29.50;;;;;;;;;;5095865;28;20105;-83
2023/05/07 07:52:02;;;;;;;31.67;28.70;;;;;;;;;;5093753;28;20056;-82
2023/05/07 07:54:29;;;;;;;33.42;30.27;;;;;;;;;;5077710;28;20051;-83
2023/05/07 07:56:55;;;;;;;32.28;29.27;;;;;;;;;;5094641;28;20055;-82
2023/05/07 07:59:21;;;;;;;33.13;30.02;;;;;;;;;;5095146;28;20055;-83
2023/05/07 08:01:49;;;;;;;32.47;29.38;;;;;;;;;;5094408;28;20073;-82
2023/05/07 08:04:15;;;;;;;33.33;30.13;;;;;;;;;;5094396;28;20113;-82
2023/05/07 08:06:42;;;;;;;31.90;29.00;;;;;;;;;;5095416;28;20044;-83
2023/05/07 08:09:08;;;;;;;32.75;29.27;;;;;;;;;;5094362;28;20056;-83
2023/05/07 08:11:34;;;;;;;32.47;29.40;;;;;;;;;;5094305;28;20369;-83
2023/05/07 08:14:00;;;;;;;30.88;28.08;;;;;;;;;;5094173;28;20051;-83
2023/05/07 08:16:27;;;;;;;32.00;29.20;;;;;;;;;;5094896;28;20364;-83
2023/05/07 08:18:53;;;;;;;31.27;28.48;;;;;;;;;;5094135;28;20056;-82
2023/05/07 08:21:20;;;;;;;31.88;28.90;;;;;;;;;;5077234;28;20500;-83
2023/05/07 08:23:46;;;;;;;29.67;26.85;;;;;;;;;;5094411;28;20062;-82
2023/05/07 08:26:12;;;;;;;30.55;27.85;;;;;;;;;;5077915;28;20380;-83
2023/05/07 08:28:39;;;;;;;30.20;27.45;;;;;;;;;;5077151;28;20056;-82
2023/05/07 08:31:05;;;;;;;27.85;25.35;;;;;;;;;;5077184;28;20048;-82
2023/05/07 08:33:31;;;;;;;29.85;27.15;;;;;;;;;;5093525;28;20384;-83
2023/05/07 08:35:58;;;;;;;27.17;24.67;;;;;;;;;;5094125;28;20048;-82
2023/05/07 08:38:24;;;;;;;28.70;26.20;;;;;;;;;;5077132;28;20054;-83
2023/05/07 08:40:50;;;;;;;28.88;26.20;;;;;;;;;;5077275;28;20040;-82
2023/05/07 08:43:17;;;;;;;27.92;25.40;;;;;;;;;;5093767;28;20468;-82
2023/05/07 08:45:45;;;;;;;25.25;22.95;;;;;;;;;;5094470;28;20088;-83
2023/05/07 08:48:15;;;;;;;27.25;24.83;;;;;;;;;;5093650;28;20139;-83
2023/05/07 08:50:41;;;;;;;29.73;27.10;;;;;;;;;;5094183;28;20051;-83
2023/05/07 08:53:07;;;;;;;27.77;25.48;;;;;;;;;;5093603;28;20130;-84
2023/05/07 08:55:33;;;;;;;26.40;24.00;;;;;;;;;;5076453;28;20044;-82
2023/05/07 08:58:00;;;;;;;27.27;24.80;;;;;;;;;;5076299;28;20060;-83
2023/05/07 09:00:26;;;;;;;26.50;24.20;;;;;;;;;;5076474;28;20097;-83
2023/05/07 09:02:53;;;;;;;25.75;23.60;;;;;;;;;;5093584;28;20039;-83
2023/05/07 09:05:19;;;;;;;27.88;25.38;;;;;;;;;;5076501;28;20067;-83
2023/05/07 09:07:46;;;;;;;26.02;23.67;;;;;;;;;;5093373;28;20123;-83
2023/05/07 09:10:12;;;;;;;26.48;24.15;;;;;;;;;;5094245;28;20051;-82
2023/05/07 09:12:39;;;;;;;25.58;23.45;;;;;;;;;;5094143;28;20051;-82
2023/05/07 09:15:06;;;;;;;26.33;24.23;;;;;;;;;;5075933;28;20040;-82
2023/05/07 09:17:32;;;;;;;25.38;22.95;;;;;;;;;;5092748;28;20062;-82
2023/05/07 09:20:05;;;;;;;25.52;23.42;;;;;;;;;;5093378;28;20090;-82
2023/05/07 09:22:34;;;;;;;26.55;24.25;;;;;;;;;;5094095;28;20047;-82
2023/05/07 09:25:00;;;;;;;26.00;23.95;;;;;;;;;;5076278;28;20043;-82
2023/05/07 09:27:26;;;;;;;25.70;23.45;;;;;;;;;;5092840;28;20136;-83
2023/05/07 09:29:52;;;;;;;25.63;23.52;;;;;;;;;;5092671;28;20047;-83
2023/05/07 09:32:19;;;;;;;23.70;21.67;;;;;;;;;;5077022;28;20206;-83
2023/05/07 09:34:45;;;;;;;25.15;22.92;;;;;;;;;;5093786;28;20131;-82
2023/05/07 09:37:12;;;;;;;25.80;23.50;;;;;;;;;;5093706;28;20051;-83
2023/05/07 09:39:39;;;;;;;23.48;21.38;;;;;;;;;;5092905;28;20051;-83
2023/05/07 09:42:06;;;;;;;25.83;23.65;;;;;;;;;;5076066;28;20104;-82
2023/05/07 09:44:32;;;;;;;24.05;22.15;;;;;;;;;;5093842;28;20052;-83
2023/05/07 09:47:00;;;;;;;21.90;20.00;;;;;;;;;;5075963;28;20056;-82
2023/05/07 09:49:29;;;;;;;23.05;21.25;;;;;;;;;;5093754;28;20096;-83
2023/05/07 09:51:59;;;;;;;24.30;22.40;;;;;;;;;;5076759;28;20103;-83
2023/05/07 09:54:27;;;;;;;24.10;22.17;;;;;;;;;;5093683;28;20040;-82
2023/05/07 09:56:53;;;;;;;22.85;20.65;;;;;;;;;;5092716;28;20369;-83
2023/05/07 09:59:20;;;;;;;23.80;21.58;;;;;;;;;;5093523;28;20109;-83
2023/05/07 10:01:46;;;;;;;23.08;21.17;;;;;;;;;;5093483;28;20044;-83
2023/05/07 10:04:13;;;;;;;21.80;20.05;;;;;;;;;;5093428;28;20101;-83
2023/05/07 10:06:39;;;;;;;22.92;21.05;;;;;;;;;;5092984;28;20449;-82
2023/05/07 10:09:06;;;;;;;21.58;19.88;;;;;;;;;;5092674;28;20384;-83
2023/05/07 10:11:35;;;;;;;22.02;20.17;;;;;;;;;;5092535;28;20122;-83
2023/05/07 10:14:02;;;;;;;20.75;19.05;;;;;;;;;;5092956;28;20040;-83
2023/05/07 10:16:36;;;;;;;22.48;20.77;;;;;;;;;;5096897;28;20052;-83
2023/05/07 10:19:05;;;;;;;21.25;19.58;;;;;;;;;;5114150;28;20107;-83
2023/05/07 10:21:31;;;;;;;21.92;20.02;;;;;;;;;;5117865;28;20078;-83
2023/05/07 10:24:10;;;;;;;21.40;19.67;;;;;;;;;;5100075;28;20074;-83
2023/05/07 10:26:36;;;;;;;19.73;18.23;;;;;;;;;;5100596;28;20082;-83
2023/05/07 10:29:06;;;;;;;20.05;18.55;;;;;;;;;;5117952;28;20540;-83
2023/05/07 10:31:50;;;;;;;21.10;19.40;;;;;;;;;;5099682;28;20422;-82
2023/05/07 10:34:20;;;;;;;22.92;21.02;;;;;;;;;;5117528;28;20062;-83
2023/05/07 10:36:47;;;;;;;20.45;18.75;;;;;;;;;;5083536;28;20117;-83
2023/05/07 10:39:13;;;;;;;19.10;17.63;;;;;;;;;;5082709;28;20047;-83
2023/05/07 10:41:39;;;;;;;18.83;17.48;;;;;;;;;;5117430;28;20047;-83
2023/05/07 10:44:05;;;;;;;19.65;18.05;;;;;;;;;;5099452;28;20160;-83
2023/05/07 10:46:35;;;;;;;19.58;18.13;;;;;;;;;;5117515;28;20048;-83
2023/05/07 10:49:02;;;;;;;19.77;18.30;;;;;;;;;;5082942;28;20051;-83
2023/05/07 10:51:29;;;;;;;19.85;18.35;;;;;;;;;;5082419;28;20051;-83
2023/05/07 10:54:11;;;;;;;20.67;19.27;;;;;;;;;;5083006;28;20044;-83
2023/05/07 10:56:37;;;;;;;19.38;17.90;;;;;;;;;;5099198;28;20065;-83
2023/05/07 10:59:30;;;;;;;18.48;17.02;;;;;;;;;;5117666;28;20075;-83
2023/05/07 11:01:57;;;;;;;19.65;18.20;;;;;;;;;;5099962;28;20494;-82
2023/05/07 11:04:25;;;;;;;18.45;17.10;;;;;;;;;;5116964;28;20046;-82
2023/05/07 11:07:09;;;;;;;18.73;17.42;;;;;;;;;;5117068;28;20059;-82
2023/05/07 11:09:53;;;;;;;19.88;18.33;;;;;;;;;;5099364;28;20055;-83
2023/05/07 11:12:38;;;;;;;18.83;17.42;;;;;;;;;;5082031;28;20483;-83
2023/05/07 11:15:08;;;;;;;17.08;15.80;;;;;;;;;;5098356;28;20075;-83
2023/05/07 11:17:34;;;;;;;17.08;15.77;;;;;;;;;;5098509;28;20484;-83
2023/05/07 11:20:01;;;;;;;19.02;17.55;;;;;;;;;;5081911;28;20043;-82
2023/05/07 11:22:35;;;;;;;17.95;16.63;;;;;;;;;;5098701;28;20089;-82
2023/05/07 11:25:01;;;;;;;19.20;17.80;;;;;;;;;;5082176;28;20050;-82
2023/05/07 11:27:27;;;;;;;19.50;18.08;;;;;;;;;;5115725;28;20047;-82
2023/05/07 11:29:54;;;;;;;18.98;17.58;;;;;;;;;;5116522;28;20126;-82
2023/05/07 11:32:27;;;;;;;17.38;16.08;;;;;;;;;;5081781;28;20407;-82
2023/05/07 11:34:54;;;;;;;17.10;15.80;;;;;;;;;;5097920;28;20077;-83
2023/05/07 11:37:21;;;;;;;17.70;16.40;;;;;;;;;;5098506;28;20674;-82
2023/05/07 11:39:47;;;;;;;18.95;17.50;;;;;;;;;;5098187;28;20051;-82
2023/05/07 11:42:32;;;;;;;16.75;15.48;;;;;;;;;;5081845;28;20051;-82
2023/05/07 11:44:59;;;;;;;16.63;15.57;;;;;;;;;;5098231;28;20134;-82
2023/05/07 11:47:25;;;;;;;16.85;15.73;;;;;;;;;;5098196;28;20083;-83
2023/05/07 11:49:52;;;;;;;16.23;15.13;;;;;;;;;;5098015;28;20050;-83
2023/05/07 11:52:19;;;;;;;18.73;17.15;;;;;;;;;;5098084;28;20047;-83
2023/05/07 11:54:52;;;;;;;18.15;16.65;;;;;;;;;;5081035;28;20044;-83
2023/05/07 11:57:18;;;;;;;17.60;16.40;;;;;;;;;;5116016;28;20112;-83
2023/05/07 11:59:44;;;;;;;16.75;15.65;;;;;;;;;;5081865;28;20051;-83
2023/05/07 12:02:11;;;;;;;17.55;16.25;;;;;;;;;;5080693;28;20521;-83
2023/05/07 12:04:38;;;;;;;17.58;16.17;;;;;;;;;;5115373;28;20454;-83
2023/05/07 12:07:04;;;;;;;18.27;16.98;;;;;;;;;;5115874;28;20471;-82
2023/05/07 12:34:20;;;;;;;17.48;16.17;;;;;;;;;;5131643;27;20314;-83
2023/05/07 12:36:48;;;;;;;16.85;15.65;;;;;;;;;;5113865;28;20047;-83
2023/05/07 12:39:14;;;;;;;16.75;15.35;;;;;;;;;;5131293;28;20129;-83
2023/05/07 12:41:54;;;;;;;18.95;17.50;;;;;;;;;;5148251;27;20205;-83
2023/05/07 12:44:24;;;;;;;16.38;15.18;;;;;;;;;;5131810;27;20047;-83
2023/05/07 12:46:50;;;;;;;17.42;16.02;;;;;;;;;;5130253;27;20043;-83
2023/05/07 12:49:17;;;;;;;16.58;15.38;;;;;;;;;;5129984;28;20433;-83
2023/05/07 12:51:44;;;;;;;16.40;15.18;;;;;;;;;;5126616;28;20054;-84
2023/05/07 12:54:10;;;;;;;16.80;15.50;;;;;;;;;;5120116;28;20031;-84
2023/05/07 12:56:36;;;;;;;16.10;15.00;;;;;;;;;;5105648;28;20051;-83
2023/05/07 12:59:03;;;;;;;16.25;15.07;;;;;;;;;;5130215;28;20115;-83
2023/05/07 13:01:30;;;;;;;17.35;16.05;;;;;;;;;;5130136;28;20550;-83
2023/05/07 13:04:00;;;;;;;16.65;15.45;;;;;;;;;;5112592;28;20075;-82
2023/05/07 13:06:27;;;;;;;15.68;14.57;;;;;;;;;;5130878;27;20044;-83
2023/05/07 13:08:53;;;;;;;16.60;15.48;;;;;;;;;;5147426;27;20130;-83
2023/05/07 13:11:20;;;;;;;16.25;15.00;;;;;;;;;;5129992;28;20035;-83
2023/05/07 13:13:46;;;;;;;14.82;13.75;;;;;;;;;;5129672;27;20605;-83
2023/05/07 13:16:12;;;;;;;14.32;13.23;;;;;;;;;;5130008;28;20066;-83
2023/05/07 13:18:39;;;;;;;14.27;13.32;;;;;;;;;;5147739;27;20043;-84
2023/05/07 13:21:06;;;;;;;13.57;12.75;;;;;;;;;;5129903;27;20571;-83
2023/05/07 13:23:32;;;;;;;13.75;12.85;;;;;;;;;;5129976;28;20055;-82
2023/05/07 13:25:58;;;;;;;12.68;11.88;;;;;;;;;;5130734;28;20502;-83
2023/05/07 13:28:25;;;;;;;12.55;11.75;;;;;;;;;;5112585;28;20039;-83
2023/05/07 13:30:51;;;;;;;13.48;12.57;;;;;;;;;;5129844;28;20040;-83
2023/05/07 13:33:18;;;;;;;13.45;12.55;;;;;;;;;;5130635;27;20467;-82
2023/05/07 13:35:44;;;;;;;12.45;11.65;;;;;;;;;;5130279;27;20043;-83
2023/05/07 13:38:10;;;;;;;11.82;11.13;;;;;;;;;;5129722;27;20047;-83
2023/05/07 13:40:36;;;;;;;11.20;10.52;;;;;;;;;;5130418;28;20047;-83
2023/05/07 13:43:02;;;;;;;12.05;11.35;;;;;;;;;;5129368;27;20055;-83
2023/05/07 13:45:29;;;;;;;11.38;10.68;;;;;;;;;;5116882;28;20086;-83
2023/05/07 13:47:56;;;;;;;10.90;10.20;;;;;;;;;;5116484;28;20051;-83
2023/05/07 13:50:22;;;;;;;11.00;10.30;;;;;;;;;;5116653;28;20502;-84
2023/05/07 13:52:50;;;;;;;10.52;9.93;;;;;;;;;;5111316;28;20044;-83
2023/05/07 13:55:20;;;;;;;9.45;8.68;;;;;;;;;;5078481;28;20048;-83
2023/05/07 13:57:47;;;;;;;10.10;9.40;;;;;;;;;;5096200;28;20426;-83
2023/05/07 14:00:13;;;;;;;10.68;10.07;;;;;;;;;;5078335;28;20048;-83
2023/05/07 14:02:40;;;;;;;10.32;9.63;;;;;;;;;;5095244;28;20052;-82
2023/05/07 14:05:06;;;;;;;10.40;9.75;;;;;;;;;;5094547;28;20093;-82
2023/05/07 14:07:32;;;;;;;10.52;9.93;;;;;;;;;;5095959;28;20071;-82
2023/05/07 14:09:58;;;;;;;11.25;10.48;;;;;;;;;;5094892;28;20048;-83
2023/05/07 14:12:25;;;;;;;11.10;10.50;;;;;;;;;;5078011;28;20048;-83
2023/05/07 14:14:51;;;;;;;10.82;10.13;;;;;;;;;;5078104;28;20527;-83
2023/05/07 14:17:17;;;;;;;13.05;12.13;;;;;;;;;;5112184;27;20048;-82
2023/05/07 14:19:44;;;;;;;13.13;12.02;;;;;;;;;;5094840;28;20051;-83
2023/05/07 14:22:10;;;;;;;12.88;11.95;;;;;;;;;;5094695;28;20104;-82
2023/05/07 14:24:36;;;;;;;12.10;11.40;;;;;;;;;;5094437;28;20073;-81
2023/05/07 14:27:02;;;;;;;13.07;12.20;;;;;;;;;;5094970;28;20048;-80
2023/05/07 14:29:28;;;;;;;12.45;11.65;;;;;;;;;;5094457;28;20127;-80
2023/05/07 14:31:54;;;;;;;11.60;10.90;;;;;;;;;;5093786;28;20048;-80
2023/05/07 14:34:20;;;;;;;12.50;11.65;;;;;;;;;;5094125;28;20056;-80
2023/05/07 14:36:47;;;;;;;12.43;11.57;;;;;;;;;;5094485;28;20535;-82
2023/05/07 14:39:13;;;;;;;11.57;10.82;;;;;;;;;;5094039;28;20040;-82
2023/05/07 14:41:39;;;;;;;11.63;10.90;;;;;;;;;;5094273;28;20051;-82